createdAt,value
2019-02-22T00:00:40.330Z,1024.48
2019-02-22T00:01:40.319Z,1024.48
2019-02-22T00:02:40.325Z,1024.52
2019-02-22T00:03:40.295Z,1024.49
2019-02-22T00:04:40.303Z,1024.53
2019-02-22T00:05:40.298Z,1024.57
2019-02-22T00:06:40.260Z,1024.57
2019-02-22T00:07:40.258Z,1024.55
2019-02-22T00:08:40.243Z,1024.55
2019-02-22T00:09:49.008Z,1024.59
2019-02-22T00:10:41.244Z,1024.56
2019-02-22T00:11:40.240Z,1024.57
2019-02-22T00:12:40.197Z,1024.53
2019-02-22T00:13:40.184Z,1024.51
2019-02-22T00:14:40.174Z,1024.57
2019-02-22T00:15:40.165Z,1024.61
2019-02-22T00:16:40.165Z,1024.62
2019-02-22T00:17:40.178Z,1024.61
2019-02-22T00:18:40.153Z,1024.62
2019-02-22T00:19:40.122Z,1024.63
2019-02-22T00:20:41.315Z,1024.60
2019-02-22T00:21:40.102Z,1024.65
2019-02-22T00:22:40.086Z,1024.63
2019-02-22T00:23:40.112Z,1024.68
2019-02-22T00:24:40.079Z,1024.68
2019-02-22T00:25:40.066Z,1024.79
2019-02-22T00:26:40.044Z,1024.80
2019-02-22T00:27:40.033Z,1024.83
2019-02-22T00:28:40.020Z,1024.87
2019-02-22T00:29:40.030Z,1024.84
2019-02-22T00:30:40.020Z,1024.84
2019-02-22T00:31:40.000Z,1024.84
2019-02-22T00:32:42.451Z,1024.82
2019-02-22T00:33:39.975Z,1024.86
2019-02-22T00:34:39.959Z,1024.88
2019-02-22T00:35:40.015Z,1024.91
2019-02-22T00:36:40.071Z,1024.91
2019-02-22T00:37:39.923Z,1024.89
2019-02-22T00:38:39.934Z,1024.91
2019-02-22T00:39:39.901Z,1024.94
2019-02-22T00:40:39.888Z,1024.95
2019-02-22T00:41:39.908Z,1024.94
2019-02-22T00:42:39.887Z,1024.92
2019-02-22T00:43:39.855Z,1024.87
2019-02-22T00:44:39.847Z,1024.86
2019-02-22T00:45:39.834Z,1024.85
2019-02-22T00:46:39.823Z,1024.84
2019-02-22T00:47:39.851Z,1024.82
2019-02-22T00:48:39.814Z,1024.90
2019-02-22T00:49:39.793Z,1024.85
2019-02-22T00:50:39.787Z,1024.90
2019-02-22T00:51:39.769Z,1024.90
2019-02-22T00:52:39.759Z,1024.90
2019-02-22T00:53:39.770Z,1024.88
2019-02-22T00:54:39.781Z,1024.93
2019-02-22T00:55:39.727Z,1024.94
2019-02-22T00:56:39.714Z,1024.96
2019-02-22T00:57:39.704Z,1024.98
2019-02-22T00:58:39.693Z,1025.00
2019-02-22T00:59:39.696Z,1025.01
2019-02-22T01:00:39.670Z,1025.00
2019-02-22T01:01:39.749Z,1025.04
2019-02-22T01:02:39.647Z,1024.99
2019-02-22T01:03:39.640Z,1024.98
2019-02-22T01:04:39.644Z,1024.97
2019-02-22T01:05:39.617Z,1025.03
2019-02-22T01:06:39.604Z,1025.02
2019-02-22T01:07:39.630Z,1025.01
2019-02-22T01:08:39.583Z,1025.02
2019-02-22T01:09:39.570Z,1025.02
2019-02-22T01:10:39.597Z,1025.06
2019-02-22T01:11:39.549Z,1025.08
2019-02-22T01:12:39.543Z,1025.10
2019-02-22T01:13:39.576Z,1025.14
2019-02-22T01:14:39.515Z,1025.12
2019-02-22T01:15:39.523Z,1025.13
2019-02-22T01:16:39.496Z,1025.12
2019-02-22T01:17:39.482Z,1025.14
2019-02-22T01:18:39.476Z,1025.15
2019-02-22T01:19:39.500Z,1025.18
2019-02-22T01:20:39.457Z,1025.19
2019-02-22T01:21:39.452Z,1025.20
2019-02-22T01:22:39.454Z,1025.20
2019-02-22T01:23:39.416Z,1025.18
2019-02-22T01:24:39.404Z,1025.21
2019-02-22T01:25:39.427Z,1025.22
2019-02-22T01:26:39.382Z,1025.17
2019-02-22T01:27:39.389Z,1025.20
2019-02-22T01:28:39.365Z,1025.18
2019-02-22T01:29:39.357Z,1025.21
2019-02-22T01:30:39.391Z,1025.22
2019-02-22T01:31:39.351Z,1025.26
2019-02-22T01:32:39.416Z,1025.24
2019-02-22T01:33:39.309Z,1025.23
2019-02-22T01:34:39.295Z,1025.27
2019-02-22T01:35:39.291Z,1025.20
2019-02-22T01:36:39.276Z,1025.27
2019-02-22T01:37:39.294Z,1025.25
2019-02-22T01:38:39.268Z,1025.27
2019-02-22T01:39:39.244Z,1025.32
2019-02-22T01:40:43.601Z,1025.37
2019-02-22T01:41:39.222Z,1025.35
2019-02-22T01:42:39.207Z,1025.31
2019-02-22T01:43:39.258Z,1025.32
2019-02-22T01:44:39.207Z,1025.34
2019-02-22T01:45:39.181Z,1025.32
2019-02-22T01:46:39.179Z,1025.32
2019-02-22T01:47:39.157Z,1025.40
2019-02-22T01:48:39.143Z,1025.38
2019-02-22T01:49:39.173Z,1025.37
2019-02-22T01:50:39.142Z,1025.37
2019-02-22T01:51:39.110Z,1025.34
2019-02-22T01:52:39.099Z,1025.36
2019-02-22T01:53:39.094Z,1025.38
2019-02-22T01:54:39.079Z,1025.40
2019-02-22T01:55:39.116Z,1025.41
2019-02-22T01:56:39.061Z,1025.45
2019-02-22T01:57:39.046Z,1025.48
2019-02-22T01:58:48.407Z,1025.51
2019-02-22T01:59:40.021Z,1025.47
2019-02-22T02:00:39.011Z,1025.50
2019-02-22T02:01:39.035Z,1025.45
2019-02-22T02:02:39.015Z,1025.49
2019-02-22T02:03:38.986Z,1025.51
2019-02-22T02:04:38.994Z,1025.56
2019-02-22T02:05:38.958Z,1025.56
2019-02-22T02:06:38.945Z,1025.60
2019-02-22T02:07:38.957Z,1025.58
2019-02-22T02:08:38.934Z,1025.54
2019-02-22T02:09:38.923Z,1025.57
2019-02-22T02:10:38.901Z,1025.54
2019-02-22T02:11:38.890Z,1025.51
2019-02-22T02:12:38.882Z,1025.54
2019-02-22T02:13:38.922Z,1025.52
2019-02-22T02:14:38.859Z,1025.54
2019-02-22T02:15:38.847Z,1025.55
2019-02-22T02:16:38.845Z,1025.58
2019-02-22T02:17:38.831Z,1025.56
2019-02-22T02:18:38.818Z,1025.58
2019-02-22T02:19:38.857Z,1025.58
2019-02-22T02:20:38.797Z,1025.56
2019-02-22T02:21:38.782Z,1025.58
2019-02-22T02:22:38.783Z,1025.59
2019-02-22T02:23:38.757Z,1025.57
2019-02-22T02:24:38.749Z,1025.57
2019-02-22T02:25:38.785Z,1025.53
2019-02-22T02:26:38.726Z,1025.54
2019-02-22T02:27:38.716Z,1025.52
2019-02-22T02:28:38.710Z,1025.50
2019-02-22T02:29:38.693Z,1025.55
2019-02-22T02:30:38.684Z,1025.54
2019-02-22T02:31:38.729Z,1025.50
2019-02-22T02:32:38.664Z,1025.52
2019-02-22T02:33:38.649Z,1025.55
2019-02-22T02:34:46.345Z,1025.56
2019-02-22T02:35:38.692Z,1025.56
2019-02-22T02:36:38.683Z,1025.53
2019-02-22T02:37:38.670Z,1025.53
2019-02-22T02:38:38.641Z,1025.53
2019-02-22T02:39:38.668Z,1025.51
2019-02-22T02:40:38.628Z,1025.53
2019-02-22T02:41:38.720Z,1025.49
2019-02-22T02:42:38.574Z,1025.52
2019-02-22T02:43:38.595Z,1025.51
2019-02-22T02:44:38.532Z,1025.52
2019-02-22T02:45:38.521Z,1025.60
2019-02-22T02:46:38.529Z,1025.61
2019-02-22T02:47:38.550Z,1025.64
2019-02-22T02:48:38.506Z,1025.71
2019-02-22T02:49:38.475Z,1025.72
2019-02-22T02:50:38.464Z,1025.72
2019-02-22T02:51:38.469Z,1025.79
2019-02-22T02:52:38.466Z,1025.76
2019-02-22T02:53:38.435Z,1025.74
2019-02-22T02:54:38.441Z,1025.78
2019-02-22T02:55:38.412Z,1025.77
2019-02-22T02:56:38.397Z,1025.78
2019-02-22T02:57:38.389Z,1025.76
2019-02-22T02:58:38.422Z,1025.78
2019-02-22T02:59:38.376Z,1025.81
2019-02-22T03:00:38.356Z,1025.87
2019-02-22T03:01:38.346Z,1025.81
2019-02-22T03:02:38.339Z,1025.85
2019-02-22T03:03:38.345Z,1025.87
2019-02-22T03:04:38.313Z,1025.88
2019-02-22T03:05:38.317Z,1025.89
2019-02-22T03:06:38.291Z,1025.91
2019-02-22T03:07:38.294Z,1025.90
2019-02-22T03:08:38.270Z,1025.91
2019-02-22T03:09:38.277Z,1025.94
2019-02-22T03:10:38.244Z,1025.95
2019-02-22T03:11:38.239Z,1026.00
2019-02-22T03:12:38.221Z,1026.04
2019-02-22T03:13:38.243Z,1026.05
2019-02-22T03:14:38.201Z,1026.03
2019-02-22T03:15:38.208Z,1026.11
2019-02-22T03:16:38.184Z,1026.11
2019-02-22T03:17:38.170Z,1026.09
2019-02-22T03:18:38.158Z,1026.07
2019-02-22T03:19:38.167Z,1026.06
2019-02-22T03:20:38.149Z,1026.03
2019-02-22T03:21:38.138Z,1026.05
2019-02-22T03:22:38.115Z,1026.00
2019-02-22T03:23:38.104Z,1026.05
2019-02-22T03:24:38.093Z,1026.02
2019-02-22T03:25:38.119Z,1026.03
2019-02-22T03:26:38.099Z,1026.09
2019-02-22T03:27:38.091Z,1026.09
2019-02-22T03:28:38.068Z,1026.14
2019-02-22T03:29:38.051Z,1026.16
2019-02-22T03:30:38.033Z,1026.19
2019-02-22T03:31:38.025Z,1026.21
2019-02-22T03:32:38.021Z,1026.23
2019-02-22T03:33:38.022Z,1026.26
2019-02-22T03:34:38.016Z,1026.29
2019-02-22T03:35:37.971Z,1026.34
2019-02-22T03:36:37.963Z,1026.28
2019-02-22T03:37:37.951Z,1026.29
2019-02-22T03:38:37.945Z,1026.36
2019-02-22T03:39:37.978Z,1026.36
2019-02-22T03:40:37.938Z,1026.32
2019-02-22T03:41:37.904Z,1026.36
2019-02-22T03:42:37.895Z,1026.34
2019-02-22T03:43:37.912Z,1026.33
2019-02-22T03:44:37.872Z,1026.36
2019-02-22T03:45:37.874Z,1026.36
2019-02-22T03:46:37.854Z,1026.35
2019-02-22T03:47:37.841Z,1026.38
2019-02-22T03:48:37.834Z,1026.37
2019-02-22T03:49:37.838Z,1026.42
2019-02-22T03:50:37.807Z,1026.46
2019-02-22T03:51:37.829Z,1026.49
2019-02-22T03:52:37.788Z,1026.49
2019-02-22T03:53:37.777Z,1026.52
2019-02-22T03:54:37.770Z,1026.57
2019-02-22T03:55:37.775Z,1026.56
2019-02-22T03:56:37.741Z,1026.59
2019-02-22T03:57:37.748Z,1026.55
2019-02-22T03:58:37.732Z,1026.56
2019-02-22T03:59:37.712Z,1026.61
2019-02-22T04:00:37.697Z,1026.62
2019-02-22T04:01:37.712Z,1026.63
2019-02-22T04:02:37.681Z,1026.70
2019-02-22T04:03:37.713Z,1026.68
2019-02-22T04:04:37.681Z,1026.73
2019-02-22T04:05:37.644Z,1026.72
2019-02-22T04:06:37.631Z,1026.71
2019-02-22T04:07:37.626Z,1026.73
2019-02-22T04:08:37.645Z,1026.70
2019-02-22T04:09:37.596Z,1026.67
2019-02-22T04:10:37.608Z,1026.70
2019-02-22T04:11:45.592Z,1026.73
2019-02-22T04:12:38.565Z,1026.71
2019-02-22T04:13:37.571Z,1026.69
2019-02-22T04:14:37.575Z,1026.70
2019-02-22T04:15:37.534Z,1026.68
2019-02-22T04:16:37.536Z,1026.69
2019-02-22T04:17:37.515Z,1026.70
2019-02-22T04:18:37.503Z,1026.69
2019-02-22T04:19:37.514Z,1026.75
2019-02-22T04:20:37.479Z,1026.73
2019-02-22T04:21:37.486Z,1026.72
2019-02-22T04:22:37.458Z,1026.75
2019-02-22T04:23:37.446Z,1026.74
2019-02-22T04:24:37.436Z,1026.76
2019-02-22T04:25:37.443Z,1026.77
2019-02-22T04:26:37.413Z,1026.75
2019-02-22T04:27:37.420Z,1026.76
2019-02-22T04:28:37.404Z,1026.80
2019-02-22T04:29:37.380Z,1026.77
2019-02-22T04:30:38.123Z,1026.78
2019-02-22T04:31:37.368Z,1026.79
2019-02-22T04:32:37.381Z,1026.82
2019-02-22T04:33:37.347Z,1026.85
2019-02-22T04:34:37.323Z,1026.87
2019-02-22T04:35:37.313Z,1026.84
2019-02-22T04:36:37.302Z,1026.83
2019-02-22T04:37:37.291Z,1026.86
2019-02-22T04:38:37.317Z,1026.85
2019-02-22T04:39:37.271Z,1026.90
2019-02-22T04:40:37.265Z,1026.83
2019-02-22T04:41:37.253Z,1026.85
2019-02-22T04:42:37.236Z,1026.84
2019-02-22T04:43:37.244Z,1026.85
2019-02-22T04:44:37.241Z,1026.87
2019-02-22T04:45:37.204Z,1026.88
2019-02-22T04:46:37.192Z,1026.93
2019-02-22T04:47:37.180Z,1026.91
2019-02-22T04:48:37.170Z,1026.90
2019-02-22T04:49:37.184Z,1026.91
2019-02-22T04:50:37.196Z,1026.89
2019-02-22T04:51:37.141Z,1026.86
2019-02-22T04:52:37.127Z,1026.87
2019-02-22T04:53:37.115Z,1026.87
2019-02-22T04:54:37.105Z,1026.87
2019-02-22T04:55:37.118Z,1026.93
2019-02-22T04:56:37.110Z,1026.91
2019-02-22T04:57:37.073Z,1026.87
2019-02-22T04:58:37.062Z,1026.89
2019-02-22T04:59:37.056Z,1026.84
2019-02-22T05:00:37.043Z,1026.85
2019-02-22T05:01:37.053Z,1026.84
2019-02-22T05:02:37.055Z,1026.84
2019-02-22T05:03:37.006Z,1026.79
2019-02-22T05:04:36.994Z,1026.79
2019-02-22T05:05:36.990Z,1026.86
2019-02-22T05:06:36.975Z,1026.81
2019-02-22T05:07:36.977Z,1026.82
2019-02-22T05:08:36.970Z,1026.86
2019-02-22T05:09:36.939Z,1026.82
2019-02-22T05:10:36.960Z,1026.87
2019-02-22T05:11:36.921Z,1026.86
2019-02-22T05:12:36.927Z,1026.87
2019-02-22T05:13:36.894Z,1026.90
2019-02-22T05:14:36.925Z,1026.93
2019-02-22T05:15:36.871Z,1026.91
2019-02-22T05:16:36.864Z,1026.92
2019-02-22T05:17:36.852Z,1026.96
2019-02-22T05:18:36.862Z,1026.98
2019-02-22T05:19:36.827Z,1026.95
2019-02-22T05:20:36.867Z,1026.98
2019-02-22T05:21:36.825Z,1027.01
2019-02-22T05:22:36.793Z,1027.03
2019-02-22T05:23:36.810Z,1027.04
2019-02-22T05:24:36.775Z,1027.04
2019-02-22T05:25:36.765Z,1027.08
2019-02-22T05:26:36.761Z,1027.06
2019-02-22T05:27:36.766Z,1027.11
2019-02-22T05:28:36.729Z,1027.06
2019-02-22T05:29:36.730Z,1027.07
2019-02-22T05:30:36.725Z,1027.06
2019-02-22T05:31:36.715Z,1027.07
2019-02-22T05:32:36.688Z,1027.05
2019-02-22T05:33:36.768Z,1027.06
2019-02-22T05:34:36.678Z,1027.10
2019-02-22T05:35:36.649Z,1027.06
2019-02-22T05:36:36.661Z,1027.12
2019-02-22T05:37:36.629Z,1027.14
2019-02-22T05:38:36.619Z,1027.17
2019-02-22T05:39:36.662Z,1027.16
2019-02-22T05:40:36.596Z,1027.18
2019-02-22T05:41:36.594Z,1027.16
2019-02-22T05:42:36.633Z,1027.20
2019-02-22T05:43:36.563Z,1027.26
2019-02-22T05:44:36.558Z,1027.28
2019-02-22T05:45:36.544Z,1027.31
2019-02-22T05:46:36.577Z,1027.32
2019-02-22T05:47:36.529Z,1027.35
2019-02-22T05:48:38.788Z,1027.37
2019-02-22T05:49:36.503Z,1027.37
2019-02-22T05:50:36.487Z,1027.41
2019-02-22T05:51:36.509Z,1027.42
2019-02-22T05:52:36.476Z,1027.40
2019-02-22T05:53:36.455Z,1027.36
2019-02-22T05:54:36.465Z,1027.37
2019-02-22T05:55:36.431Z,1027.41
2019-02-22T05:56:36.425Z,1027.38
2019-02-22T05:57:36.425Z,1027.34
2019-02-22T05:58:36.446Z,1027.37
2019-02-22T05:59:36.444Z,1027.32
2019-02-22T06:00:36.375Z,1027.33
2019-02-22T06:01:36.373Z,1027.38
2019-02-22T06:02:36.354Z,1027.41
2019-02-22T06:03:36.361Z,1027.45
2019-02-22T06:04:36.372Z,1027.46
2019-02-22T06:05:36.333Z,1027.48
2019-02-22T06:06:36.315Z,1027.48
2019-02-22T06:07:36.295Z,1027.51
2019-02-22T06:08:36.287Z,1027.61
2019-02-22T06:09:36.296Z,1027.63
2019-02-22T06:10:36.282Z,1027.62
2019-02-22T06:11:36.265Z,1027.67
2019-02-22T06:12:36.241Z,1027.67
2019-02-22T06:13:36.242Z,1027.69
2019-02-22T06:14:36.230Z,1027.70
2019-02-22T06:15:36.220Z,1027.71
2019-02-22T06:16:36.229Z,1027.76
2019-02-22T06:17:36.188Z,1027.77
2019-02-22T06:18:36.180Z,1027.78
2019-02-22T06:19:36.166Z,1027.78
2019-02-22T06:20:36.170Z,1027.76
2019-02-22T06:21:36.145Z,1027.82
2019-02-22T06:22:36.176Z,1027.78
2019-02-22T06:23:36.121Z,1027.82
2019-02-22T06:24:36.107Z,1027.79
2019-02-22T06:25:36.100Z,1027.81
2019-02-22T06:26:36.105Z,1027.81
2019-02-22T06:27:36.081Z,1027.85
2019-02-22T06:28:36.089Z,1027.89
2019-02-22T06:29:36.059Z,1027.85
2019-02-22T06:30:36.047Z,1027.90
2019-02-22T06:31:36.032Z,1027.87
2019-02-22T06:32:36.038Z,1027.90
2019-02-22T06:33:36.015Z,1027.92
2019-02-22T06:34:36.024Z,1027.91
2019-02-22T06:35:35.990Z,1027.91
2019-02-22T06:36:35.980Z,1027.97
2019-02-22T06:37:35.983Z,1027.95
2019-02-22T06:38:35.994Z,1027.97
2019-02-22T06:39:35.947Z,1027.96
2019-02-22T06:40:35.992Z,1027.99
2019-02-22T06:41:35.921Z,1027.95
2019-02-22T06:42:45.226Z,1027.92
2019-02-22T06:43:36.915Z,1027.97
2019-02-22T06:44:35.892Z,1027.95
2019-02-22T06:45:35.878Z,1028.02
2019-02-22T06:46:35.886Z,1028.04
2019-02-22T06:47:35.859Z,1028.00
2019-02-22T06:48:35.860Z,1027.99
2019-02-22T06:49:35.852Z,1028.04
2019-02-22T06:50:35.826Z,1027.98
2019-02-22T06:51:35.817Z,1028.06
2019-02-22T06:52:35.833Z,1028.04
2019-02-22T06:53:35.793Z,1028.05
2019-02-22T06:54:35.803Z,1028.08
2019-02-22T06:55:35.770Z,1028.08
2019-02-22T06:56:35.760Z,1028.11
2019-02-22T06:57:35.751Z,1028.13
2019-02-22T06:58:35.813Z,1028.15
2019-02-22T06:59:35.728Z,1028.18
2019-02-22T07:00:35.730Z,1028.19
2019-02-22T07:01:35.704Z,1028.20
2019-02-22T07:02:35.694Z,1028.21
2019-02-22T07:03:35.716Z,1028.20
2019-02-22T07:04:35.672Z,1028.22
2019-02-22T07:05:35.705Z,1028.18
2019-02-22T07:06:35.666Z,1028.22
2019-02-22T07:07:35.663Z,1028.20
2019-02-22T07:08:35.627Z,1028.27
2019-02-22T07:09:35.614Z,1028.25
2019-02-22T07:10:35.608Z,1028.27
2019-02-22T07:11:37.758Z,1028.25
2019-02-22T07:12:35.605Z,1028.30
2019-02-22T07:13:35.578Z,1028.35
2019-02-22T07:14:35.562Z,1028.36
2019-02-22T07:15:35.551Z,1028.33
2019-02-22T07:16:35.541Z,1028.37
2019-02-22T07:17:35.579Z,1028.40
2019-02-22T07:18:35.537Z,1028.46
2019-02-22T07:19:35.507Z,1028.48
2019-02-22T07:20:35.506Z,1028.46
2019-02-22T07:21:44.047Z,1028.46
2019-02-22T07:22:36.475Z,1028.51
2019-02-22T07:23:35.507Z,1028.51
2019-02-22T07:24:35.468Z,1028.53
2019-02-22T07:25:35.445Z,1028.60
2019-02-22T07:26:35.441Z,1028.62
2019-02-22T07:27:35.421Z,1028.64
2019-02-22T07:28:35.408Z,1028.64
2019-02-22T07:29:35.414Z,1028.65
2019-02-22T07:30:35.431Z,1028.67
2019-02-22T07:31:35.375Z,1028.66
2019-02-22T07:32:35.369Z,1028.64
2019-02-22T07:33:35.353Z,1028.69
2019-02-22T07:34:35.341Z,1028.67
2019-02-22T07:35:35.355Z,1028.73
2019-02-22T07:36:35.352Z,1028.72
2019-02-22T07:37:35.315Z,1028.70
2019-02-22T07:38:35.299Z,1028.78
2019-02-22T07:39:35.287Z,1028.79
2019-02-22T07:40:35.284Z,1028.80
2019-02-22T07:41:35.290Z,1028.83
2019-02-22T07:42:35.254Z,1028.81
2019-02-22T07:43:35.310Z,1028.84
2019-02-22T07:44:35.232Z,1028.85
2019-02-22T07:45:35.228Z,1028.86
2019-02-22T07:46:35.214Z,1028.91
2019-02-22T07:47:35.210Z,1028.91
2019-02-22T07:48:35.186Z,1028.93
2019-02-22T07:49:35.225Z,1028.93
2019-02-22T07:50:35.254Z,1028.95
2019-02-22T07:51:35.154Z,1028.94
2019-02-22T07:52:35.161Z,1028.97
2019-02-22T07:53:35.137Z,1029.00
2019-02-22T07:54:35.141Z,1029.03
2019-02-22T07:55:35.152Z,1029.04
2019-02-22T07:56:35.100Z,1029.06
2019-02-22T07:57:35.089Z,1029.09
2019-02-22T07:58:35.102Z,1029.12
2019-02-22T07:59:35.066Z,1029.14
2019-02-22T08:00:35.058Z,1029.17
2019-02-22T08:01:46.578Z,1029.20
2019-02-22T08:02:36.031Z,1029.22
2019-02-22T08:03:37.332Z,1029.24
2019-02-22T08:04:35.028Z,1029.22
2019-02-22T08:05:35.002Z,1029.21
2019-02-22T08:06:34.993Z,1029.24
2019-02-22T08:07:35.005Z,1029.26
2019-02-22T08:08:34.970Z,1029.26
2019-02-22T08:09:34.958Z,1029.28
2019-02-22T08:10:34.974Z,1029.29
2019-02-22T08:11:34.939Z,1029.29
2019-02-22T08:12:34.928Z,1029.32
2019-02-22T08:13:34.957Z,1029.36
2019-02-22T08:14:34.902Z,1029.34
2019-02-22T08:15:35.485Z,1029.39
2019-02-22T08:16:34.896Z,1029.41
2019-02-22T08:17:34.874Z,1029.38
2019-02-22T08:18:34.866Z,1029.39
2019-02-22T08:19:34.902Z,1029.41
2019-02-22T08:20:34.835Z,1029.41
2019-02-22T08:21:34.840Z,1029.44
2019-02-22T08:22:34.836Z,1029.45
2019-02-22T08:23:34.821Z,1029.48
2019-02-22T08:24:34.803Z,1029.48
2019-02-22T08:25:34.834Z,1029.50
2019-02-22T08:26:34.771Z,1029.52
2019-02-22T08:27:34.761Z,1029.56
2019-02-22T08:28:34.754Z,1029.54
2019-02-22T08:29:35.045Z,1029.51
2019-02-22T08:30:34.753Z,1029.53
2019-02-22T08:31:34.718Z,1029.54
2019-02-22T08:32:34.818Z,1029.55
2019-02-22T08:33:34.742Z,1029.54
2019-02-22T08:34:34.701Z,1029.60
2019-02-22T08:35:42.224Z,1029.59
2019-02-22T08:36:34.656Z,1029.62
2019-02-22T08:37:34.644Z,1029.62
2019-02-22T08:38:34.641Z,1029.64
2019-02-22T08:39:34.625Z,1029.64
2019-02-22T08:40:34.626Z,1029.67
2019-02-22T08:41:34.615Z,1029.67
2019-02-22T08:42:34.601Z,1029.70
2019-02-22T08:43:34.582Z,1029.78
2019-02-22T08:44:34.619Z,1029.68
2019-02-22T08:45:34.558Z,1029.70
2019-02-22T08:46:34.568Z,1029.69
2019-02-22T08:47:34.549Z,1029.74
2019-02-22T08:48:34.524Z,1029.75
2019-02-22T08:49:34.511Z,1029.78
2019-02-22T08:50:34.502Z,1029.81
2019-02-22T08:51:34.493Z,1029.80
2019-02-22T08:52:34.534Z,1029.79
2019-02-22T08:53:34.474Z,1029.81
2019-02-22T08:54:34.546Z,1029.86
2019-02-22T08:55:36.601Z,1029.88
2019-02-22T08:56:34.435Z,1029.88
2019-02-22T08:57:34.423Z,1029.89
2019-02-22T08:58:34.429Z,1029.90
2019-02-22T08:59:34.404Z,1029.92
2019-02-22T09:00:34.416Z,1029.95
2019-02-22T09:01:35.711Z,1029.93
2019-02-22T09:02:34.371Z,1029.93
2019-02-22T09:03:34.380Z,1029.94
2019-02-22T09:04:34.347Z,1029.95
2019-02-22T09:05:34.336Z,1029.94
2019-02-22T09:06:34.324Z,1029.98
2019-02-22T09:07:34.333Z,1029.99
2019-02-22T09:08:34.301Z,1029.98
2019-02-22T09:09:34.308Z,1030.02
2019-02-22T09:10:34.281Z,1030.04
2019-02-22T09:11:34.272Z,1030.04
2019-02-22T09:12:34.257Z,1030.05
2019-02-22T09:13:43.087Z,1030.06
2019-02-22T09:14:35.259Z,1030.07
2019-02-22T09:15:34.228Z,1030.12
2019-02-22T09:16:34.215Z,1030.11
2019-02-22T09:17:34.202Z,1030.12
2019-02-22T09:18:34.195Z,1030.15
2019-02-22T09:19:34.189Z,1030.18
2019-02-22T09:20:34.187Z,1030.21
2019-02-22T09:21:34.162Z,1030.17
2019-02-22T09:22:34.151Z,1030.20
2019-02-22T09:23:34.138Z,1030.22
2019-02-22T09:24:34.126Z,1030.22
2019-02-22T09:25:34.136Z,1030.22
2019-02-22T09:26:34.127Z,1030.23
2019-02-22T09:27:34.096Z,1030.27
2019-02-22T09:28:34.084Z,1030.29
2019-02-22T09:29:34.073Z,1030.26
2019-02-22T09:30:34.058Z,1030.26
2019-02-22T09:31:34.075Z,1030.23
2019-02-22T09:32:34.054Z,1030.33
2019-02-22T09:33:34.027Z,1030.31
2019-02-22T09:34:34.018Z,1030.30
2019-02-22T09:35:34.891Z,1030.32
2019-02-22T09:36:33.995Z,1030.30
2019-02-22T09:37:33.990Z,1030.26
2019-02-22T09:38:33.982Z,1030.26
2019-02-22T09:39:33.961Z,1030.30
2019-02-22T09:40:33.949Z,1030.27
2019-02-22T09:41:33.938Z,1030.28
2019-02-22T09:42:33.925Z,1030.29
2019-02-22T09:43:33.946Z,1030.28
2019-02-22T09:44:33.902Z,1030.28
2019-02-22T09:45:33.896Z,1030.30
2019-02-22T09:46:33.881Z,1030.33
2019-02-22T09:47:33.868Z,1030.33
2019-02-22T09:48:33.857Z,1030.42
2019-02-22T09:49:33.871Z,1030.41
2019-02-22T09:50:33.841Z,1030.40
2019-02-22T09:51:33.824Z,1030.44
2019-02-22T09:52:33.815Z,1030.46
2019-02-22T09:53:33.807Z,1030.46
2019-02-22T09:54:33.791Z,1030.51
2019-02-22T09:55:33.809Z,1030.48
2019-02-22T09:56:33.769Z,1030.47
2019-02-22T09:57:33.758Z,1030.47
2019-02-22T09:58:33.747Z,1030.51
2019-02-22T09:59:33.738Z,1030.52
2019-02-22T10:00:33.740Z,1030.48
2019-02-22T10:01:33.738Z,1030.47
2019-02-22T10:02:33.701Z,1030.47
2019-02-22T10:03:33.692Z,1030.46
2019-02-22T10:04:33.686Z,1030.45
2019-02-22T10:05:33.667Z,1030.44
2019-02-22T10:06:33.671Z,1030.52
2019-02-22T10:07:33.652Z,1030.49
2019-02-22T10:08:33.638Z,1030.53
2019-02-22T10:09:33.629Z,1030.53
2019-02-22T10:10:33.614Z,1030.58
2019-02-22T10:11:33.602Z,1030.54
2019-02-22T10:12:33.601Z,1030.58
2019-02-22T10:13:33.603Z,1030.68
2019-02-22T10:14:33.571Z,1030.64
2019-02-22T10:15:33.557Z,1030.63
2019-02-22T10:16:33.547Z,1030.64
2019-02-22T10:17:33.536Z,1030.66
2019-02-22T10:18:33.546Z,1030.65
2019-02-22T10:19:33.537Z,1030.66
2019-02-22T10:20:33.502Z,1030.66
2019-02-22T10:21:33.491Z,1030.66
2019-02-22T10:22:33.479Z,1030.65
2019-02-22T10:23:33.468Z,1030.61
2019-02-22T10:24:33.470Z,1030.59
2019-02-22T10:25:33.465Z,1030.57
2019-02-22T10:26:33.446Z,1030.54
2019-02-22T10:27:33.425Z,1030.58
2019-02-22T10:28:33.411Z,1030.57
2019-02-22T10:29:33.401Z,1030.58
2019-02-22T10:30:33.403Z,1030.62
2019-02-22T10:31:33.386Z,1030.66
2019-02-22T10:32:33.378Z,1030.64
2019-02-22T10:33:36.739Z,1030.67
2019-02-22T10:34:33.346Z,1030.68
2019-02-22T10:35:33.333Z,1030.71
2019-02-22T10:36:42.285Z,1030.72
2019-02-22T10:37:34.314Z,1030.73
2019-02-22T10:38:35.830Z,1030.72
2019-02-22T10:39:33.309Z,1030.74
2019-02-22T10:40:33.279Z,1030.70
2019-02-22T10:41:33.267Z,1030.79
2019-02-22T10:42:33.257Z,1030.75
2019-02-22T10:43:33.263Z,1030.75
2019-02-22T10:44:33.232Z,1030.75
2019-02-22T10:45:33.240Z,1030.77
2019-02-22T10:46:33.215Z,1030.74
2019-02-22T10:47:33.199Z,1030.75
2019-02-22T10:48:33.188Z,1030.76
2019-02-22T10:49:33.186Z,1030.77
2019-02-22T10:50:33.174Z,1030.79
2019-02-22T10:51:34.203Z,1030.78
2019-02-22T10:52:33.145Z,1030.75
2019-02-22T10:53:33.133Z,1030.80
2019-02-22T10:54:33.124Z,1030.80
2019-02-22T10:55:33.110Z,1030.82
2019-02-22T10:56:33.100Z,1030.84
2019-02-22T10:57:33.111Z,1030.82
2019-02-22T10:58:33.181Z,1030.84
2019-02-22T10:59:33.068Z,1030.86
2019-02-22T11:00:33.058Z,1030.89
2019-02-22T11:01:33.043Z,1030.88
2019-02-22T11:02:33.106Z,1030.92
2019-02-22T11:03:33.045Z,1030.86
2019-02-22T11:04:33.011Z,1030.88
2019-02-22T11:05:33.024Z,1030.85
2019-02-22T11:06:32.987Z,1030.87
2019-02-22T11:07:32.978Z,1030.80
2019-02-22T11:08:32.966Z,1030.81
2019-02-22T11:09:33.002Z,1030.80
2019-02-22T11:10:32.958Z,1030.82
2019-02-22T11:11:32.939Z,1030.83
2019-02-22T11:12:32.922Z,1030.82
2019-02-22T11:13:32.912Z,1030.79
2019-02-22T11:14:32.901Z,1030.81
2019-02-22T11:15:32.933Z,1030.81
2019-02-22T11:16:32.876Z,1030.86
2019-02-22T11:17:32.879Z,1030.85
2019-02-22T11:18:32.857Z,1030.82
2019-02-22T11:19:32.844Z,1030.82
2019-02-22T11:20:32.851Z,1030.81
2019-02-22T11:21:32.829Z,1030.80
2019-02-22T11:22:32.813Z,1030.83
2019-02-22T11:23:32.798Z,1030.79
2019-02-22T11:24:32.792Z,1030.82
2019-02-22T11:25:32.779Z,1030.78
2019-02-22T11:26:32.784Z,1030.81
2019-02-22T11:27:32.757Z,1030.82
2019-02-22T11:28:32.745Z,1030.81
2019-02-22T11:29:32.732Z,1030.83
2019-02-22T11:30:32.722Z,1030.82
2019-02-22T11:31:32.712Z,1030.81
2019-02-22T11:32:32.711Z,1030.85
2019-02-22T11:33:32.693Z,1030.80
2019-02-22T11:34:32.678Z,1030.84
2019-02-22T11:35:32.670Z,1030.85
2019-02-22T11:36:32.655Z,1030.82
2019-02-22T11:37:32.660Z,1030.82
2019-02-22T11:38:32.645Z,1030.84
2019-02-22T11:39:32.622Z,1030.84
2019-02-22T11:40:33.645Z,1030.87
2019-02-22T11:41:32.599Z,1030.88
2019-02-22T11:42:32.591Z,1030.87
2019-02-22T11:43:32.599Z,1030.90
2019-02-22T11:44:39.826Z,1030.83
2019-02-22T11:45:33.554Z,1030.86
2019-02-22T11:46:32.545Z,1030.88
2019-02-22T11:47:32.535Z,1030.91
2019-02-22T11:48:32.522Z,1030.96
2019-02-22T11:49:32.526Z,1030.95
2019-02-22T11:50:32.510Z,1030.97
2019-02-22T11:51:32.492Z,1030.99
2019-02-22T11:52:32.482Z,1030.99
2019-02-22T11:53:32.473Z,1031.05
2019-02-22T11:54:32.479Z,1031.05
2019-02-22T11:55:32.445Z,1031.04
2019-02-22T11:56:32.444Z,1031.03
2019-02-22T11:57:32.433Z,1031.05
2019-02-22T11:58:32.416Z,1031.01
2019-02-22T11:59:32.406Z,1031.02
2019-02-22T12:00:32.401Z,1031.02
2019-02-22T12:01:32.379Z,1031.04
2019-02-22T12:02:32.368Z,1031.03
2019-02-22T12:03:32.367Z,1031.13
2019-02-22T12:04:32.356Z,1031.12
2019-02-22T12:05:32.350Z,1031.13